Time;durP1;ratioP1;P1;durP2;ratioP2;P2;SDS_P1;SDS_P2;PMS_P1;PMS_P2;Temp;Humidity;BMP_temperature;BMP_pressure;BME280_temperature;BME280_humidity;BME280_pressure;Samples;Min_cycle;Max_cycle;Signal;HPM_P1;HPM_P2
2021/12/10 00:02:22;;;;;;;14.70;13.23;;;;;;;2.04;100.00;99714.91;5263693;28;20028;-86
2021/12/10 00:04:53;;;;;;;15.02;12.85;;;;;;;2.03;100.00;99701.84;5260689;28;20024;-85
2021/12/10 00:07:26;;;;;;;13.30;12.13;;;;;;;2.15;100.00;99715.19;5279679;28;20039;-84
2021/12/10 00:10:03;;;;;;;13.75;11.63;;;;;;;2.06;100.00;99688.06;5266528;28;20122;-83
2021/12/10 00:12:43;;;;;;;12.60;11.40;;;;;;;2.14;100.00;99689.59;5271084;28;20645;-83
2021/12/10 00:15:15;;;;;;;10.02;9.13;;;;;;;2.21;100.00;99685.78;5270050;28;20023;-83
2021/12/10 00:17:46;;;;;;;11.65;10.43;;;;;;;2.03;100.00;99670.69;5270145;28;20032;-84
2021/12/10 00:20:18;;;;;;;10.02;9.23;;;;;;;2.09;100.00;99646.84;5270491;28;20087;-83
2021/12/10 00:22:58;;;;;;;35.17;11.00;;;;;;;2.26;100.00;99669.94;5269002;28;20016;-83
2021/12/10 00:25:36;;;;;;;13.63;9.60;;;;;;;1.55;100.00;99571.56;5289137;28;20039;-83
2021/12/10 00:28:18;;;;;;;9.70;8.55;;;;;;;2.31;100.00;99655.94;5287843;28;20024;-84
2021/12/10 00:31:02;;;;;;;10.60;8.30;;;;;;;2.20;100.00;99638.88;5279799;28;20436;-83
2021/12/10 00:33:39;;;;;;;9.63;7.35;;;;;;;1.96;100.00;99578.69;5260488;28;20257;-83
2021/12/10 00:36:10;;;;;;;8.95;8.10;;;;;;;2.14;100.00;99613.19;5278184;28;20028;-84
2021/12/10 00:38:41;;;;;;;8.38;7.60;;;;;;;1.96;100.00;99594.66;5261667;28;20035;-85
2021/12/10 00:41:11;;;;;;;15.75;9.25;;;;;;;2.17;100.00;99622.56;5286182;28;20292;-83
2021/12/10 00:43:42;;;;;;;9.98;8.60;;;;;;;1.88;100.00;99584.34;5289413;28;20043;-84
2021/12/10 00:46:13;;;;;;;10.05;8.43;;;;;;;2.08;100.00;99608.78;5261511;28;20020;-84
2021/12/10 00:48:44;;;;;;;13.02;8.77;;;;;;;1.87;100.00;99574.72;5262264;28;20111;-84
2021/12/10 00:51:14;;;;;;;7.40;6.93;;;;;;;2.00;100.00;99603.81;5264255;28;20055;-85
2021/12/10 00:53:45;;;;;;;9.65;8.77;;;;;;;1.71;100.00;99538.16;5279148;28;20028;-85
2021/12/10 00:56:15;;;;;;;9.02;8.15;;;;;;;1.94;100.00;99567.44;5262195;28;20111;-85
2021/12/10 00:58:46;;;;;;;9.10;8.43;;;;;;;1.63;100.00;99516.19;5287210;28;20069;-84
2021/12/10 01:01:23;;;;;;;8.88;8.07;;;;;;;1.81;100.00;99543.72;5288916;28;20028;-84
2021/12/10 01:04:18;;;;;;;13.93;8.27;;;;;;;1.77;100.00;99534.56;5277725;28;20028;-86
2021/12/10 01:06:51;;;;;;;11.95;8.15;;;;;;;1.82;100.00;99538.16;5277829;28;20223;-86
2021/12/10 01:09:27;;;;;;;13.38;8.98;;;;;;;1.81;100.00;99533.88;5259415;28;20024;-84
2021/12/10 01:12:04;;;;;;;10.60;8.13;;;;;;;1.66;100.00;99504.25;5259116;28;20465;-84
2021/12/10 01:28:52;;;;;;;17.25;7.55;;;;;;;1.84;100.00;99493.50;5277368;28;20089;-84
2021/12/10 01:31:22;;;;;;;7.13;6.38;;;;;;;1.86;100.00;99490.59;5259547;28;20430;-83
2021/12/10 01:33:53;;;;;;;9.27;7.43;;;;;;;1.88;100.00;99488.50;5258190;28;20028;-84
2021/12/10 01:36:24;;;;;;;6.20;5.90;;;;;;;1.54;100.00;99426.28;5276739;28;20052;-84
2021/12/10 01:38:55;;;;;;;6.10;5.80;;;;;;;1.66;100.00;99424.44;5259044;28;20027;-82
2021/12/10 01:41:29;;;;;;;7.63;7.03;;;;;;;2.04;100.00;99469.97;5258107;28;20028;-83
2021/12/10 01:44:03;;;;;;;7.45;6.75;;;;;;;2.02;100.00;99458.72;5276037;28;20023;-84
2021/12/10 01:46:38;;;;;;;7.95;7.18;;;;;;;2.11;100.00;99466.38;5258407;28;20389;-84
2021/12/10 01:49:12;;;;;;;12.13;7.65;;;;;;;2.10;100.00;99446.09;5258213;28;20077;-84
2021/12/10 01:51:44;;;;;;;6.25;5.82;;;;;;;2.07;100.00;99435.91;5258779;28;20055;-84
2021/12/10 01:54:28;;;;;;;8.80;6.35;;;;;;;2.08;100.00;99432.22;5257515;28;20398;-84
2021/12/10 01:57:02;;;;;;;6.32;5.88;;;;;;;1.93;100.00;99412.25;5276874;28;20039;-84
2021/12/10 01:59:35;;;;;;;7.57;6.85;;;;;;;1.82;100.00;99391.78;5258230;28;20107;-84
2021/12/10 02:02:10;;;;;;;10.75;6.55;;;;;;;2.09;100.00;99429.31;5258318;28;20028;-84
2021/12/10 02:04:43;;;;;;;9.50;7.47;;;;;;;2.17;100.00;99409.50;5259782;28;20028;-84
2021/12/10 02:07:18;;;;;;;7.20;6.53;;;;;;;2.11;100.00;99383.81;5279894;28;20047;-83
2021/12/10 02:09:49;;;;;;;9.00;6.28;;;;;;;2.38;100.00;99427.50;5261022;28;20058;-83
2021/12/10 02:12:20;;;;;;;7.25;5.38;;;;;;;2.46;100.00;99418.31;5278968;28;20031;-84
2021/12/10 02:14:59;;;;;;;6.40;6.00;;;;;;;1.98;100.00;99316.50;5259368;28;20336;-82
2021/12/10 02:17:35;;;;;;;7.25;6.63;;;;;;;2.42;100.00;99379.88;5261599;28;20046;-83
2021/12/10 02:20:10;;;;;;;6.80;5.90;;;;;;;2.47;100.00;99386.13;5260288;28;20016;-83
2021/12/10 02:22:43;;;;;;;7.95;5.60;;;;;;;2.35;100.00;99364.03;5278597;28;20055;-86
2021/12/10 02:25:17;;;;;;;7.95;5.40;;;;;;;2.59;100.00;99389.53;5275850;28;20119;-84
2021/12/10 02:27:48;;;;;;;6.22;5.82;;;;;;;2.25;100.00;99316.72;5275538;28;20035;-86
2021/12/10 02:30:21;;;;;;;11.52;6.10;;;;;;;2.44;100.00;99330.63;5276081;28;20043;-82
2021/12/10 02:32:52;;;;;;;8.02;6.47;;;;;;;2.46;100.00;99327.72;5275991;28;20019;-84
2021/12/10 02:35:24;;;;;;;7.40;5.28;;;;;;;2.67;100.00;99357.13;5278701;28;20020;-84
2021/12/10 02:37:55;;;;;;;6.30;5.60;;;;;;;2.49;100.00;99311.28;5260020;28;20020;-82
2021/12/10 02:40:28;;;;;;;6.50;5.63;;;;;;;2.44;100.00;99306.66;5259925;28;20110;-82
2021/12/10 02:43:03;;;;;;;8.40;4.68;;;;;;;2.74;100.00;99341.00;5278998;28;20027;-86
2021/12/10 02:45:36;;;;;;;5.13;4.55;;;;;;;2.75;100.00;99331.97;5274486;28;20077;-84
2021/12/10 02:48:07;;;;;;;8.02;5.93;;;;;;;2.79;100.00;99322.44;5256944;28;20031;-85
2021/12/10 02:50:38;;;;;;;6.57;3.80;;;;;;;2.71;100.00;99320.16;5275903;28;20062;-82
2021/12/10 02:53:09;;;;;;;5.78;4.55;;;;;;;2.79;100.00;99317.09;5258635;28;20443;-82
2021/12/10 02:55:40;;;;;;;12.05;4.75;;;;;;;2.79;100.00;99317.09;5256858;28;20039;-83
2021/12/10 02:58:12;;;;;;;7.22;5.13;;;;;;;2.76;100.00;99298.91;5274682;28;20020;-83
2021/12/10 03:01:03;;;;;;;6.60;5.38;;;;;;;2.81;100.00;99296.34;5257169;28;20109;-85
2021/12/10 03:03:36;;;;;;;5.45;4.95;;;;;;;2.81;100.00;99293.66;5274318;28;20503;-84
2021/12/10 03:06:11;;;;;;;4.78;4.20;;;;;;;2.87;100.00;99297.22;5257591;28;20081;-82
2021/12/10 03:08:48;;;;;;;5.53;5.03;;;;;;;2.47;100.00;99218.25;5262629;28;20027;-82
2021/12/10 03:11:28;;;;;;;4.88;4.40;;;;;;;2.78;100.00;99272.84;5280510;28;20470;-82
2021/12/10 03:14:08;;;;;;;6.38;3.63;;;;;;;2.77;100.00;99265.88;5279990;28;20051;-82
2021/12/10 03:16:41;;;;;;;5.22;4.72;;;;;;;2.98;100.00;99283.78;5280048;28;20083;-82
2021/12/10 03:19:12;;;;;;;8.93;5.68;;;;;;;2.15;100.00;99146.13;5262359;28;20054;-82
2021/12/10 03:21:44;;;;;;;14.70;3.60;;;;;;;2.50;100.00;99196.47;5280250;28;20020;-84
2021/12/10 03:24:18;;;;;;;5.75;5.28;;;;;;;2.85;100.00;99243.34;5278396;28;20416;-82
2021/12/10 03:26:53;;;;;;;5.20;4.38;;;;;;;3.01;100.00;99247.81;5279933;28;20031;-82
2021/12/10 03:29:27;;;;;;;3.95;3.67;;;;;;;3.03;100.00;99256.38;5275395;28;20059;-83
2021/12/10 03:32:01;;;;;;;5.82;4.50;;;;;;;2.84;100.00;99220.41;5256602;28;20459;-86
2021/12/10 03:34:35;;;;;;;5.65;4.45;;;;;;;2.99;100.00;99236.59;5274721;28;20031;-84
2021/12/10 03:37:07;;;;;;;3.60;3.35;;;;;;;3.03;100.00;99211.06;5257112;28;20042;-83
2021/12/10 03:39:37;;;;;;;6.40;5.05;;;;;;;2.93;100.00;99185.06;5276519;28;20286;-82
2021/12/10 03:42:08;;;;;;;15.98;4.07;;;;;;;2.97;100.00;99188.84;5262142;28;20027;-82
2021/12/10 03:44:39;;;;;;;7.75;3.63;;;;;;;3.08;100.00;99191.66;5260902;28;20020;-81
2021/12/10 03:47:11;;;;;;;7.00;4.53;;;;;;;3.01;100.00;99181.97;5260837;28;20024;-82
2021/12/10 03:49:42;;;;;;;3.78;3.53;;;;;;;2.91;100.00;99175.69;5260925;28;20069;-82
2021/12/10 03:52:13;;;;;;;4.97;4.63;;;;;;;3.09;100.00;99191.41;5275910;28;20027;-85
2021/12/10 03:54:43;;;;;;;4.97;4.50;;;;;;;3.14;100.00;99193.34;5274282;28;20397;-84
2021/12/10 03:57:14;;;;;;;7.65;3.80;;;;;;;2.66;100.00;99120.19;5254471;28;20194;-83
2021/12/10 03:59:44;;;;;;;3.30;3.10;;;;;;;3.01;100.00;99181.16;5273008;28;20493;-84
2021/12/10 04:02:15;;;;;;;3.50;3.30;;;;;;;2.93;100.00;99168.25;5273327;28;20121;-83
2021/12/10 04:04:48;;;;;;;6.57;4.18;;;;;;;2.90;100.00;99160.75;5272826;28;20028;-84
2021/12/10 04:07:23;;;;;;;3.10;2.70;;;;;;;3.02;100.00;99162.25;5255505;28;20050;-83
2021/12/10 04:09:54;;;;;;;4.85;3.83;;;;;;;2.66;100.00;99107.69;5272470;28;20521;-84
2021/12/10 04:12:25;;;;;;;14.10;4.18;;;;;;;3.01;100.00;99152.63;5273730;28;20110;-83
2021/12/10 04:14:55;;;;;;;6.82;4.55;;;;;;;2.90;100.00;99147.41;5260264;28;20543;-82
2021/12/10 04:17:26;;;;;;;3.25;3.13;;;;;;;2.81;100.00;99139.06;5259470;28;20058;-83
2021/12/10 04:19:57;;;;;;;3.47;3.35;;;;;;;2.59;100.00;99099.09;5267298;28;20031;-82
2021/12/10 04:22:32;;;;;;;4.72;3.65;;;;;;;2.74;100.00;99108.31;5266525;28;20020;-83
2021/12/10 04:25:08;;;;;;;3.92;3.58;;;;;;;2.72;100.00;99104.03;5266841;28;20031;-85
2021/12/10 04:27:38;;;;;;;3.95;3.72;;;;;;;2.57;100.00;99098.53;5260329;28;20500;-84
2021/12/10 04:30:12;;;;;;;3.42;3.33;;;;;;;2.65;100.00;99082.06;5258786;28;20020;-83
2021/12/10 04:32:43;;;;;;;4.18;3.88;;;;;;;2.86;100.00;99117.81;5266867;28;20027;-83
2021/12/10 04:35:15;;;;;;;5.85;3.75;;;;;;;2.85;100.00;99113.53;5261739;28;20089;-84
2021/12/10 04:37:49;;;;;;;4.25;3.85;;;;;;;2.86;100.00;99101.00;5277008;28;20016;-83
2021/12/10 04:40:21;;;;;;;3.33;3.10;;;;;;;2.70;100.00;99092.00;5259831;28;20392;-82
2021/12/10 04:42:52;;;;;;;5.03;4.43;;;;;;;2.83;100.00;99110.31;5267563;28;20043;-82
2021/12/10 04:45:23;;;;;;;3.38;3.17;;;;;;;2.38;100.00;99035.91;5284607;28;20109;-83
2021/12/10 04:47:53;;;;;;;6.60;4.70;;;;;;;2.65;100.00;99073.28;5282077;28;20504;-84
2021/12/10 04:50:26;;;;;;;11.50;3.85;;;;;;;2.54;100.00;99040.41;5262350;28;20028;-83
2021/12/10 04:52:58;;;;;;;3.15;2.95;;;;;;;2.73;100.00;99072.84;5264774;28;20035;-85
2021/12/10 04:55:28;;;;;;;3.95;3.58;;;;;;;2.28;100.00;98990.53;5259689;28;20120;-84
2021/12/10 04:57:59;;;;;;;3.33;3.17;;;;;;;2.92;100.00;99076.78;5277137;28;20047;-85
2021/12/10 05:00:34;;;;;;;4.18;3.67;;;;;;;2.97;100.00;99074.19;5283254;22;20040;-62
2021/12/10 05:03:06;;;;;;;4.38;4.05;;;;;;;2.96;100.00;99063.78;5252408;28;20027;-63
2021/12/10 05:05:38;;;;;;;3.28;3.10;;;;;;;2.96;100.00;99061.13;5252254;28;20028;-64
2021/12/10 05:08:10;;;;;;;3.35;3.15;;;;;;;2.98;100.00;99059.00;5270440;28;20028;-63
2021/12/10 05:10:42;;;;;;;5.10;4.68;;;;;;;2.93;100.00;99056.28;5252179;28;20027;-64
2021/12/10 05:13:12;;;;;;;3.85;3.58;;;;;;;2.96;100.00;99058.44;5251907;28;20064;-66
2021/12/10 05:15:44;;;;;;;10.75;3.35;;;;;;;2.96;100.00;99050.44;5252236;28;20028;-61
2021/12/10 05:18:15;;;;;;;10.20;3.33;;;;;;;2.93;100.00;99057.09;5252244;28;20023;-62
2021/12/10 05:20:48;;;;;;;3.10;2.90;;;;;;;2.93;100.00;99053.59;5252092;28;20605;-61
2021/12/10 05:23:20;;;;;;;3.97;3.80;;;;;;;2.94;100.00;99047.22;5251829;28;20052;-61
2021/12/10 05:25:52;;;;;;;5.78;4.30;;;;;;;2.95;100.00;99044.31;5251822;28;20024;-61
2021/12/10 05:28:22;;;;;;;3.55;3.22;;;;;;;2.93;100.00;99045.59;5269875;28;20023;-63
2021/12/10 05:30:55;;;;;;;6.10;4.45;;;;;;;2.96;100.00;99056.59;5251903;28;20028;-62
2021/12/10 05:33:28;;;;;;;2.90;2.80;;;;;;;2.95;100.00;99038.16;5251149;28;20028;-64
2021/12/10 05:36:01;;;;;;;4.72;3.55;;;;;;;2.93;100.00;99057.09;5250554;28;20039;-61
2021/12/10 05:38:32;;;;;;;3.83;3.00;;;;;;;2.93;100.00;99040.28;5251044;28;20506;-61
2021/12/10 05:41:06;;;;;;;3.60;3.35;;;;;;;2.72;100.00;99005.41;5251846;28;20020;-63
2021/12/10 05:43:41;;;;;;;6.38;3.50;;;;;;;2.91;100.00;99034.38;5250883;28;20267;-60
2021/12/10 05:46:12;;;;;;;3.50;3.30;;;;;;;2.88;100.00;99026.91;5250995;28;20039;-64
2021/12/10 05:48:44;;;;;;;2.50;2.50;;;;;;;2.84;100.00;99028.47;5249481;28;20483;-64
2021/12/10 05:51:15;;;;;;;6.68;4.03;;;;;;;2.85;100.00;99030.09;5250019;28;20059;-65
2021/12/10 05:53:46;;;;;;;3.88;3.15;;;;;;;2.83;100.00;99032.19;5249513;28;20052;-64
2021/12/10 05:56:17;;;;;;;4.43;3.40;;;;;;;2.81;100.00;99032.44;5249524;28;20024;-63
2021/12/10 05:58:48;;;;;;;2.88;2.72;;;;;;;2.74;100.00;99025.69;5249797;28;20114;-63
2021/12/10 06:01:20;;;;;;;4.55;4.35;;;;;;;2.77;100.00;99026.00;5249644;28;20447;-61
2021/12/10 06:03:52;;;;;;;3.15;3.05;;;;;;;2.66;100.00;99014.41;5249322;28;20051;-64
2021/12/10 06:06:29;;;;;;;3.42;3.13;;;;;;;2.73;100.00;99024.88;5249599;28;20024;-61
2021/12/10 06:09:02;;;;;;;7.85;2.85;;;;;;;2.74;100.00;99023.03;5267705;28;20428;-63
2021/12/10 06:11:34;;;;;;;5.57;3.15;;;;;;;2.74;100.00;99025.69;5249480;28;20024;-61
2021/12/10 06:14:06;;;;;;;4.13;3.83;;;;;;;2.71;100.00;99017.13;5249094;28;20024;-64
2021/12/10 06:16:37;;;;;;;2.95;2.85;;;;;;;2.63;100.00;98998.91;5249283;28;20085;-61
2021/12/10 06:19:08;;;;;;;2.88;2.72;;;;;;;2.69;100.00;99007.78;5248883;28;20316;-63
2021/12/10 06:21:38;;;;;;;2.83;2.72;;;;;;;2.72;100.00;99001.94;5249340;28;20028;-61
2021/12/10 06:24:09;;;;;;;4.45;4.03;;;;;;;2.71;100.00;99009.13;5249050;28;20076;-61
2021/12/10 06:26:40;;;;;;;4.60;4.03;;;;;;;2.71;100.00;99006.47;5249124;28;20032;-62
2021/12/10 06:29:11;;;;;;;3.45;3.17;;;;;;;2.70;100.00;98999.53;5248338;28;20020;-63
2021/12/10 06:31:42;;;;;;;3.65;3.35;;;;;;;2.69;100.00;98995.25;5247772;28;20070;-63
2021/12/10 06:34:12;;;;;;;5.75;3.55;;;;;;;2.66;100.00;98998.41;5248936;28;20070;-63
2021/12/10 06:36:43;;;;;;;3.75;3.28;;;;;;;2.67;100.00;99000.03;5248956;28;20046;-61
2021/12/10 06:39:14;;;;;;;3.78;3.47;;;;;;;2.60;100.00;98999.41;5248543;28;20084;-62
2021/12/10 06:41:46;;;;;;;3.22;3.03;;;;;;;2.62;100.00;98991.97;5249080;28;20555;-61
2021/12/10 06:44:17;;;;;;;4.50;4.20;;;;;;;2.59;100.00;98989.03;5248518;28;20093;-60
2021/12/10 06:46:49;;;;;;;6.15;3.88;;;;;;;2.68;100.00;99001.63;5249102;28;20016;-63
2021/12/10 06:49:19;;;;;;;3.10;2.95;;;;;;;2.68;100.00;99001.63;5267151;28;20115;-60
2021/12/10 06:51:50;;;;;;;3.60;3.08;;;;;;;2.69;100.00;99005.09;5248818;28;20428;-57
2021/12/10 06:54:20;;;;;;;2.90;2.80;;;;;;;2.69;100.00;99005.91;5266696;28;20028;-61
2021/12/10 06:56:52;;;;;;;3.65;3.55;;;;;;;2.69;100.00;99013.09;5248950;28;20030;-59
2021/12/10 06:59:25;;;;;;;4.00;3.58;;;;;;;2.53;100.00;98993.50;5248915;28;20028;-62
2021/12/10 07:01:55;;;;;;;6.82;3.60;;;;;;;2.68;100.00;99009.63;5248505;28;20028;-61
2021/12/10 07:04:26;;;;;;;3.65;3.33;;;;;;;2.68;100.00;99014.16;5248700;28;20476;-61
2021/12/10 07:06:56;;;;;;;4.97;3.38;;;;;;;2.69;100.00;99015.78;5248730;28;20024;-61
2021/12/10 07:09:27;;;;;;;3.90;3.72;;;;;;;2.67;100.00;99010.69;5248761;28;20024;-61
2021/12/10 07:11:58;;;;;;;3.58;3.38;;;;;;;2.66;100.00;99017.06;5248851;28;20047;-60
2021/12/10 07:14:28;;;;;;;3.60;3.45;;;;;;;2.66;100.00;99014.41;5248804;28;20484;-62
2021/12/10 07:16:59;;;;;;;4.68;4.28;;;;;;;2.67;100.00;99016.00;5248610;28;20066;-60
2021/12/10 07:19:30;;;;;;;5.13;4.72;;;;;;;2.69;100.00;99011.25;5248611;28;20032;-60
2021/12/10 07:22:01;;;;;;;5.95;5.18;;;;;;;2.66;100.00;99011.75;5248608;28;20487;-61
2021/12/10 07:24:31;;;;;;;6.38;4.63;;;;;;;2.57;100.00;98999.94;5248345;28;20034;-58
2021/12/10 07:27:02;;;;;;;4.18;3.97;;;;;;;2.65;100.00;99007.47;5248685;28;20028;-61
2021/12/10 07:29:32;;;;;;;5.93;4.68;;;;;;;2.64;100.00;99010.38;5248560;28;20123;-63
2021/12/10 07:32:03;;;;;;;5.13;4.28;;;;;;;2.60;100.00;99012.72;5248321;28;20028;-63
2021/12/10 07:34:35;;;;;;;7.88;5.32;;;;;;;2.59;100.00;99003.16;5248270;28;20016;-61
2021/12/10 07:37:08;;;;;;;4.95;4.57;;;;;;;2.58;100.00;99009.53;5248396;28;20028;-60
2021/12/10 07:39:39;;;;;;;5.00;4.68;;;;;;;2.59;100.00;99008.47;5248500;28;20051;-61
2021/12/10 07:42:10;;;;;;;4.00;3.80;;;;;;;2.59;100.00;99005.81;5248351;28;20027;-61
2021/12/10 07:44:40;;;;;;;5.82;5.43;;;;;;;2.60;100.00;99007.41;5248218;28;20046;-60
2021/12/10 07:47:13;;;;;;;4.60;4.28;;;;;;;2.59;100.00;99016.47;5248432;28;20020;-58
2021/12/10 07:49:44;;;;;;;8.27;5.22;;;;;;;2.59;100.00;99013.81;5248442;28;20024;-63
2021/12/10 07:52:21;;;;;;;5.25;4.95;;;;;;;2.60;100.00;99023.38;5250989;28;20031;-60
2021/12/10 07:54:51;;;;;;;7.30;4.95;;;;;;;2.60;100.00;99014.63;5252119;28;20330;-61
2021/12/10 07:57:24;;;;;;;5.20;4.20;;;;;;;2.49;100.00;99003.03;5252116;28;20352;-59
2021/12/10 07:59:55;;;;;;;5.03;4.63;;;;;;;2.56;100.00;99019.63;5252230;28;20391;-60
2021/12/10 08:02:25;;;;;;;7.72;4.93;;;;;;;2.59;100.00;99023.66;5252007;28;20209;-60
2021/12/10 08:04:56;;;;;;;6.90;5.82;;;;;;;2.59;100.00;99029.81;5251953;28;20144;-60
2021/12/10 08:07:28;;;;;;;5.93;5.43;;;;;;;2.60;100.00;99031.38;5251782;28;20012;-61
2021/12/10 08:09:59;;;;;;;5.38;5.00;;;;;;;2.60;100.00;99026.06;5251939;28;20030;-64
2021/12/10 08:12:30;;;;;;;6.15;5.65;;;;;;;2.60;100.00;99018.06;5251747;28;20224;-62
2021/12/10 08:15:02;;;;;;;5.78;5.40;;;;;;;2.58;100.00;99014.06;5251619;28;20396;-59
2021/12/10 08:17:33;;;;;;;5.80;5.47;;;;;;;2.54;100.00;99008.41;5270022;28;20020;-61
2021/12/10 08:20:06;;;;;;;5.70;5.35;;;;;;;2.59;100.00;99019.16;5251742;28;20034;-63
2021/12/10 08:22:36;;;;;;;5.78;4.80;;;;;;;2.61;100.00;99021.53;5251563;28;20028;-60
2021/12/10 08:25:07;;;;;;;8.15;5.32;;;;;;;2.60;100.00;99020.72;5251480;28;20499;-61
2021/12/10 08:27:38;;;;;;;6.65;6.03;;;;;;;2.60;100.00;99025.28;5251699;28;20016;-62
2021/12/10 08:30:11;;;;;;;7.82;5.90;;;;;;;2.60;100.00;99020.72;5251624;28;20020;-61
2021/12/10 08:32:43;;;;;;;6.95;6.28;;;;;;;2.61;100.00;99021.53;5251482;28;20624;-61
2021/12/10 08:35:19;;;;;;;13.90;6.97;;;;;;;2.62;100.00;99034.59;5251096;28;20106;-61
2021/12/10 08:37:51;;;;;;;6.10;5.68;;;;;;;2.62;100.00;99020.47;5251600;28;20036;-61
2021/12/10 08:40:27;;;;;;;5.85;5.38;;;;;;;2.60;100.00;99020.72;5251559;28;20618;-61
2021/12/10 08:42:57;;;;;;;5.45;5.25;;;;;;;2.64;100.00;99023.69;5251374;28;20020;-60
2021/12/10 08:45:28;;;;;;;6.00;5.70;;;;;;;2.65;100.00;99018.13;5269338;28;20340;-60
2021/12/10 08:47:59;;;;;;;6.00;5.68;;;;;;;2.58;100.00;99009.53;5251164;28;20103;-65
2021/12/10 08:50:30;;;;;;;8.77;5.32;;;;;;;2.68;100.00;99025.63;5251255;28;20132;-60
2021/12/10 08:53:05;;;;;;;5.07;4.80;;;;;;;2.66;100.00;99024.25;5250945;28;20494;-65
2021/12/10 08:55:36;;;;;;;7.45;6.07;;;;;;;2.56;100.00;99008.97;5250852;28;20391;-60
2021/12/10 08:58:08;;;;;;;6.15;5.57;;;;;;;2.55;100.00;99009.22;5251069;28;20024;-58
2021/12/10 09:00:47;;;;;;;7.53;5.70;;;;;;;2.68;100.00;99024.81;5250949;28;20438;-61
2021/12/10 09:03:17;;;;;;;5.18;4.78;;;;;;;2.69;100.00;99023.75;5250455;28;20056;-61
2021/12/10 09:05:48;;;;;;;7.70;6.43;;;;;;;2.71;100.00;99032.31;5251080;28;20098;-63
2021/12/10 09:08:18;;;;;;;6.60;5.97;;;;;;;2.72;100.00;99032.06;5251063;28;20529;-60
2021/12/10 09:10:50;;;;;;;6.78;6.28;;;;;;;2.75;100.00;99032.63;5250746;28;20115;-60
2021/12/10 09:13:21;;;;;;;6.88;6.30;;;;;;;2.75;100.00;99037.97;5250708;28;20039;-61
2021/12/10 09:15:58;;;;;;;6.22;5.70;;;;;;;2.72;100.00;99040.06;5250754;28;20396;-58
2021/12/10 09:18:29;;;;;;;6.30;5.80;;;;;;;2.75;100.00;99037.97;5251044;28;20036;-64
2021/12/10 09:21:02;;;;;;;5.60;5.28;;;;;;;2.72;100.00;99037.41;5250844;28;20046;-61
2021/12/10 09:23:33;;;;;;;5.15;4.95;;;;;;;2.67;100.00;99047.19;5251612;28;20090;-64
2021/12/10 09:26:08;;;;;;;5.80;5.50;;;;;;;2.65;100.00;99049.28;5230339;28;20020;-61
2021/12/10 09:28:42;;;;;;;5.78;5.40;;;;;;;2.50;100.00;99039.28;5230755;28;20024;-64
2021/12/10 09:31:14;;;;;;;4.97;4.70;;;;;;;2.51;100.00;99048.06;5230266;28;20058;-64
2021/12/10 09:33:45;;;;;;;5.35;5.15;;;;;;;2.56;100.00;99054.28;5229515;28;20488;-62
2021/12/10 09:36:15;;;;;;;5.97;5.57;;;;;;;2.56;100.00;99067.59;5229944;28;20077;-64
2021/12/10 09:38:47;;;;;;;6.03;5.72;;;;;;;2.56;100.00;99066.78;5247802;28;20033;-63
2021/12/10 09:41:18;;;;;;;5.88;5.43;;;;;;;2.54;100.00;99072.38;5229958;28;20025;-61
2021/12/10 09:43:50;;;;;;;5.28;5.07;;;;;;;2.51;100.00;99072.84;5229373;28;20028;-64
2021/12/10 09:46:21;;;;;;;5.03;4.72;;;;;;;2.55;100.00;99079.31;5230189;28;20035;-61
2021/12/10 09:48:51;;;;;;;6.22;4.93;;;;;;;2.52;100.00;99079.78;5230126;28;20024;-61
2021/12/10 09:51:30;;;;;;;4.55;4.35;;;;;;;2.54;100.00;99079.56;5230027;28;20032;-64
2021/12/10 09:54:05;;;;;;;4.72;4.53;;;;;;;2.52;100.00;99079.78;5229427;28;20506;-63
2021/12/10 09:56:35;;;;;;;6.32;5.90;;;;;;;2.50;100.00;99079.25;5230389;28;20031;-63
2021/12/10 09:59:06;;;;;;;6.20;5.80;;;;;;;2.47;100.00;99074.41;5230423;28;20108;-63
2021/12/10 10:01:44;;;;;;;5.68;5.18;;;;;;;2.47;100.00;99082.38;5230388;28;20032;-64
2021/12/10 10:04:18;;;;;;;5.30;4.88;;;;;;;2.50;100.00;99089.09;5230405;28;20032;-63
2021/12/10 10:07:00;;;;;;;6.28;5.88;;;;;;;2.51;100.00;99088.84;5230145;28;20044;-63
2021/12/10 10:09:33;;;;;;;6.05;5.43;;;;;;;2.59;100.00;99087.63;5229311;28;20503;-65
2021/12/10 10:12:11;;;;;;;6.50;6.05;;;;;;;2.55;100.00;99078.50;5229788;28;20032;-63
2021/12/10 10:14:42;;;;;;;5.53;5.15;;;;;;;2.52;100.00;99087.00;5228460;28;20456;-61
2021/12/10 10:17:13;;;;;;;7.05;5.72;;;;;;;2.43;100.00;99088.44;5229780;28;20482;-63
2021/12/10 10:19:44;;;;;;;6.10;5.60;;;;;;;2.39;100.00;99093.47;5229584;28;20377;-61
2021/12/10 10:22:19;;;;;;;6.18;5.70;;;;;;;2.41;100.00;99095.88;5229084;28;20024;-60
2021/12/10 10:24:52;;;;;;;5.97;5.78;;;;;;;2.47;100.00;99103.72;5229172;28;20097;-64
2021/12/10 10:27:29;;;;;;;5.75;5.25;;;;;;;2.49;100.00;99096.28;5247442;28;20465;-61
2021/12/10 10:30:09;;;;;;;6.88;6.53;;;;;;;2.51;100.00;99107.50;5229820;28;20488;-61
2021/12/10 10:32:45;;;;;;;;;;;;;;;2.50;100.00;99097.88;5229864;28;20419;-61
2021/12/10 10:35:21;;;;;;;5.78;5.47;;;;;;;2.46;100.00;99094.09;5229251;28;19966;-62
2021/12/10 10:37:51;;;;;;;6.35;6.05;;;;;;;2.44;100.00;99092.72;5229782;28;20524;-61
2021/12/10 10:40:27;;;;;;;5.32;5.13;;;;;;;2.47;100.00;99097.56;5229488;28;20052;-61
2021/12/10 10:42:57;;;;;;;5.35;4.80;;;;;;;2.49;100.00;99096.28;5229264;28;20028;-62
2021/12/10 10:45:32;;;;;;;5.90;5.25;;;;;;;2.54;100.00;99101.66;5228833;28;20024;-60
2021/12/10 10:48:05;;;;;;;7.30;6.97;;;;;;;2.55;100.00;99108.63;5229098;28;20125;-60
2021/12/10 10:50:46;;;;;;;5.40;4.95;;;;;;;2.63;100.00;99110.84;5229326;28;20016;-60
2021/12/10 10:53:21;;;;;;;5.50;5.20;;;;;;;2.70;100.00;99110.66;5229535;28;20137;-61
2021/12/10 10:55:57;;;;;;;6.07;5.43;;;;;;;2.51;100.00;99088.84;5230260;28;20149;-63
2021/12/10 10:58:34;;;;;;;6.82;6.15;;;;;;;2.64;100.00;99103.66;5229440;28;20025;-60
2021/12/10 11:01:20;;;;;;;7.78;7.05;;;;;;;2.70;100.00;99110.66;5259564;22;20047;-90
2021/12/10 11:04:03;;;;;;;6.80;6.22;;;;;;;2.64;100.00;99112.44;5260095;28;20016;-91
2021/12/10 11:06:39;;;;;;;6.82;6.40;;;;;;;2.03;100.00;99009.63;5260759;28;20513;-90
2021/12/10 11:09:17;;;;;;;6.00;5.78;;;;;;;2.70;100.00;99113.31;5260750;28;20394;-89
2021/12/10 11:11:55;;;;;;;7.30;6.28;;;;;;;2.74;100.00;99118.97;5247936;28;20028;-90
2021/12/10 11:14:46;;;;;;;5.55;5.25;;;;;;;2.78;100.00;99115.56;5239834;28;20028;-90
2021/12/10 11:17:39;;;;;;;7.65;6.80;;;;;;;2.80;100.00;99120.66;5255630;28;20040;-90
2021/12/10 11:20:34;;;;;;;5.90;5.60;;;;;;;2.84;100.00;99127.09;5256622;28;20025;-90
2021/12/10 11:23:08;;;;;;;6.82;6.38;;;;;;;2.64;100.00;99088.47;5256577;28;20028;-92
2021/12/10 11:25:47;;;;;;;6.22;5.85;;;;;;;2.75;100.00;99112.59;5257810;28;20032;-90
2021/12/10 11:28:30;;;;;;;7.50;6.33;;;;;;;2.85;100.00;99126.84;5260153;28;20035;-89
2021/12/10 11:31:08;;;;;;;5.95;5.65;;;;;;;2.87;100.00;99127.41;5260144;28;20032;-88
2021/12/10 11:33:44;;;;;;;5.20;4.90;;;;;;;2.91;100.00;99138.38;5241828;28;20032;-90
2021/12/10 11:36:19;;;;;;;5.28;5.00;;;;;;;2.96;100.00;99149.09;5260430;28;20058;-90
2021/12/10 11:38:55;;;;;;;5.00;4.80;;;;;;;2.95;100.00;99140.28;5241708;28;20028;-91
2021/12/10 11:41:28;;;;;;;6.28;5.68;;;;;;;2.59;100.00;99085.75;5241575;28;20047;-91
2021/12/10 11:44:37;;;;;;;6.00;5.60;;;;;;;2.93;100.00;99123.72;5259619;28;20443;-91
2021/12/10 11:47:26;;;;;;;5.95;5.70;;;;;;;2.58;100.00;99078.81;5241120;28;20025;-90
2021/12/10 11:49:58;;;;;;;7.13;6.63;;;;;;;2.91;100.00;99119.69;5259365;28;20431;-91
2021/12/10 11:52:29;;;;;;;8.60;7.80;;;;;;;2.42;100.00;99034.38;5241314;28;20028;-90
2021/12/10 11:55:07;;;;;;;7.05;6.35;;;;;;;3.11;100.00;99143.16;5258487;28;20032;-90
2021/12/10 11:57:42;;;;;;;7.97;7.47;;;;;;;3.01;100.00;99135.84;5241072;28;20028;-89
2021/12/10 12:00:30;;;;;;;7.05;6.72;;;;;;;3.18;100.00;99155.22;5259575;28;20024;-91
2021/12/10 12:03:05;;;;;;;8.40;7.03;;;;;;;2.11;100.00;98989.75;5259274;28;20032;-91
2021/12/10 12:05:42;;;;;;;7.50;6.80;;;;;;;3.07;100.00;99137.50;5258575;28;20024;-90
2021/12/10 12:08:16;;;;;;;6.97;6.53;;;;;;;3.09;100.00;99154.06;5259018;28;20486;-89
2021/12/10 12:10:55;;;;;;;8.30;7.75;;;;;;;3.21;100.00;99165.41;5258465;28;20090;-91
2021/12/10 12:13:36;;;;;;;7.13;6.55;;;;;;;2.91;100.00;99133.03;5240890;28;20020;-91
2021/12/10 12:16:10;;;;;;;7.85;7.45;;;;;;;2.89;100.00;99129.81;5240974;28;20047;-91